createdAt,value
2022-11-20T00:01:35.036Z,11.93
2022-11-20T00:04:03.294Z,12.43
2022-11-20T00:06:31.885Z,12.50
2022-11-20T00:09:02.893Z,13.13
2022-11-20T00:11:32.509Z,13.23
2022-11-20T00:14:02.803Z,12.63
2022-11-20T00:16:33.647Z,12.10
2022-11-20T00:19:01.913Z,10.75
2022-11-20T00:21:31.118Z,11.38
2022-11-20T00:24:01.648Z,10.50
2022-11-20T00:26:32.489Z,12.90
2022-11-20T00:29:02.735Z,11.68
2022-11-20T00:31:34.095Z,11.05
2022-11-20T00:34:02.382Z,11.57
2022-11-20T00:36:33.900Z,11.00
2022-11-20T00:39:03.814Z,12.55
2022-11-20T00:41:32.690Z,11.43
2022-11-20T00:44:00.997Z,11.95
2022-11-20T00:46:30.180Z,11.40
2022-11-20T00:48:58.497Z,10.63
2022-11-20T00:51:28.814Z,11.23
2022-11-20T00:53:58.680Z,11.55
2022-11-20T00:56:28.674Z,11.85
2022-11-20T00:58:57.055Z,9.73
2022-11-20T01:01:26.956Z,11.10
2022-11-20T01:03:58.878Z,11.10
2022-11-20T01:06:35.063Z,10.43
2022-11-20T01:09:04.968Z,10.07
2022-11-20T01:11:37.162Z,10.50
2022-11-20T01:14:09.417Z,10.57
2022-11-20T01:16:39.438Z,10.87
2022-11-20T01:19:09.751Z,9.83
2022-11-20T01:21:40.041Z,11.65
2022-11-20T01:24:10.081Z,10.45
2022-11-20T01:26:41.742Z,9.67
2022-11-20T01:29:13.398Z,10.85
2022-11-20T01:31:41.642Z,10.60
2022-11-20T01:34:13.103Z,10.15
2022-11-20T01:36:42.612Z,10.90
2022-11-20T01:39:14.435Z,11.07
2022-11-20T01:42:08.422Z,10.57
2022-11-20T01:44:53.038Z,10.45
2022-11-20T01:47:27.870Z,11.05
2022-11-20T01:50:01.229Z,10.63
2022-11-20T01:52:35.467Z,11.25
2022-11-20T01:55:09.117Z,10.65
2022-11-20T01:57:40.909Z,11.05
2022-11-20T02:00:12.136Z,12.00
2022-11-20T02:02:43.167Z,11.50
2022-11-20T02:05:22.767Z,11.40
2022-11-20T02:07:51.065Z,11.50
2022-11-20T02:10:19.371Z,11.13
2022-11-20T02:13:06.390Z,13.25
2022-11-20T02:15:35.766Z,12.00
2022-11-20T02:18:04.177Z,13.25
2022-11-20T02:20:32.358Z,12.45
2022-11-20T02:23:05.000Z,11.80
2022-11-20T02:25:37.279Z,12.48
2022-11-20T02:28:06.061Z,11.17
2022-11-20T02:30:34.367Z,12.88
2022-11-20T02:33:02.536Z,13.10
2022-11-20T02:35:44.111Z,11.83
2022-11-20T02:38:12.715Z,11.48
2022-11-20T02:40:42.502Z,13.73
2022-11-20T02:43:11.448Z,13.63
2022-11-20T02:45:39.973Z,11.97
2022-11-20T02:48:09.815Z,11.97
2022-11-20T02:50:40.763Z,12.45
2022-11-20T02:53:09.436Z,12.27
2022-11-20T02:55:41.033Z,11.80
2022-11-20T02:58:10.787Z,11.75
2022-11-20T03:00:38.996Z,11.37
2022-11-20T03:03:07.264Z,10.57
2022-11-20T03:05:35.569Z,12.07
2022-11-20T03:08:03.729Z,10.52
2022-11-20T03:10:31.815Z,12.40
2022-11-20T03:12:59.958Z,11.93
2022-11-20T03:15:29.550Z,13.50
2022-11-20T03:17:59.132Z,11.03
2022-11-20T03:20:27.386Z,10.87
2022-11-20T03:22:56.864Z,11.97
2022-11-20T03:25:25.234Z,13.33
2022-11-20T03:27:53.519Z,12.68
2022-11-20T03:30:23.928Z,12.23
2022-11-20T03:32:57.051Z,11.67
2022-11-20T03:35:25.194Z,12.82
2022-11-20T03:37:53.379Z,13.73
2022-11-20T03:40:21.516Z,13.10
2022-11-20T03:42:49.618Z,11.93
2022-11-20T03:45:19.104Z,13.43
2022-11-20T03:47:47.902Z,13.50
2022-11-20T03:50:20.632Z,12.27
2022-11-20T03:52:48.995Z,12.43
2022-11-20T03:55:17.347Z,13.23
2022-11-20T03:57:45.462Z,11.70
2022-11-20T04:00:15.151Z,11.27
2022-11-20T04:02:43.313Z,13.00
2022-11-20T04:05:11.498Z,12.07
2022-11-20T04:07:41.214Z,10.80
2022-11-20T04:10:10.225Z,12.67
2022-11-20T04:12:38.543Z,12.52
2022-11-20T04:15:07.272Z,11.85
2022-11-20T04:17:35.471Z,12.35
2022-11-20T04:20:03.939Z,14.65
2022-11-20T04:22:32.162Z,13.50
2022-11-20T04:25:01.936Z,13.95
2022-11-20T04:27:30.140Z,11.57
2022-11-20T04:29:58.492Z,12.48
2022-11-20T04:32:26.646Z,13.60
2022-11-20T04:34:55.181Z,12.20
2022-11-20T04:37:23.338Z,12.32
2022-11-20T04:39:51.541Z,12.88
2022-11-20T04:42:33.234Z,12.93
2022-11-20T04:45:01.417Z,12.50
2022-11-20T04:47:29.681Z,14.98
2022-11-20T04:49:57.991Z,13.77
2022-11-20T04:52:26.120Z,12.68
2022-11-20T04:54:59.363Z,14.15
2022-11-20T04:57:29.115Z,11.50
2022-11-20T04:59:57.343Z,12.55
2022-11-20T05:02:25.853Z,12.48
2022-11-20T05:04:53.962Z,12.77
2022-11-20T05:07:22.115Z,13.45
2022-11-20T05:09:50.294Z,13.10
2022-11-20T05:12:18.453Z,13.88
2022-11-20T05:14:48.243Z,14.30
2022-11-20T05:17:16.491Z,14.15
2022-11-20T05:19:45.997Z,13.02
2022-11-20T05:22:15.606Z,14.13
2022-11-20T05:24:43.875Z,12.90
2022-11-20T05:27:12.164Z,12.23
2022-11-20T05:29:40.505Z,12.90
2022-11-20T05:32:10.744Z,12.27
2022-11-20T05:34:39.146Z,12.27
2022-11-20T05:37:07.338Z,12.10
2022-11-20T05:39:35.533Z,12.68
2022-11-20T05:42:20.798Z,12.07
2022-11-20T05:44:48.948Z,12.10
2022-11-20T05:47:18.740Z,13.30
2022-11-20T05:49:47.040Z,12.27
2022-11-20T05:52:15.371Z,11.88
2022-11-20T05:54:43.648Z,12.82
2022-11-20T05:57:11.939Z,11.95
2022-11-20T05:59:40.251Z,12.75
2022-11-20T06:02:08.385Z,13.10
2022-11-20T06:04:37.950Z,12.77
2022-11-20T06:07:07.940Z,12.40
2022-11-20T06:09:36.095Z,13.55
2022-11-20T06:12:04.381Z,12.40
2022-11-20T06:14:32.565Z,13.13
2022-11-20T06:17:00.993Z,12.30
2022-11-20T06:19:29.176Z,13.63
2022-11-20T06:21:58.839Z,13.40
2022-11-20T06:24:27.599Z,13.30
2022-11-20T06:26:55.687Z,13.38
2022-11-20T06:29:24.076Z,14.48
2022-11-20T06:31:52.300Z,13.18
2022-11-20T06:34:20.537Z,12.18
2022-11-20T06:36:48.697Z,12.77
2022-11-20T06:39:18.427Z,12.68
2022-11-20T06:41:46.584Z,12.55
2022-11-20T06:44:14.775Z,13.70
2022-11-20T06:46:42.892Z,14.45
2022-11-20T06:49:11.018Z,15.13
2022-11-20T06:51:39.452Z,14.15
2022-11-20T06:54:07.842Z,13.30
2022-11-20T06:56:37.693Z,13.55
2022-11-20T06:59:07.426Z,12.93
2022-11-20T07:01:36.139Z,14.27
2022-11-20T07:04:05.098Z,14.20
2022-11-20T07:06:33.770Z,13.55
2022-11-20T07:09:02.723Z,14.63
2022-11-20T07:11:30.911Z,14.30
2022-11-20T07:14:01.095Z,14.68
2022-11-20T07:16:29.357Z,15.10
2022-11-20T07:18:57.601Z,14.50
2022-11-20T07:21:25.802Z,13.93
2022-11-20T07:23:54.006Z,14.98
2022-11-20T07:26:22.633Z,14.30
2022-11-20T07:28:50.898Z,15.25
2022-11-20T07:31:20.524Z,14.23
2022-11-20T07:33:48.877Z,13.43
2022-11-20T07:36:17.062Z,14.23
2022-11-20T07:38:45.183Z,14.80
2022-11-20T07:41:13.431Z,14.70
2022-11-20T07:43:41.932Z,13.85
2022-11-20T07:46:10.153Z,14.85
2022-11-20T07:48:39.721Z,14.02
2022-11-20T07:51:08.379Z,14.23
2022-11-20T07:53:36.666Z,14.75
2022-11-20T07:56:06.146Z,13.68
2022-11-20T07:58:35.569Z,15.05
2022-11-20T08:01:08.136Z,14.20
2022-11-20T08:03:38.761Z,13.30
2022-11-20T08:06:09.919Z,13.73
2022-11-20T08:08:42.781Z,16.38
2022-11-20T08:11:25.237Z,14.18
2022-11-20T08:14:10.879Z,15.52
2022-11-20T08:16:39.173Z,14.88
2022-11-20T08:19:07.469Z,14.80
2022-11-20T08:21:38.514Z,15.23
2022-11-20T08:24:07.829Z,14.85
2022-11-20T08:26:37.861Z,15.57
2022-11-20T08:29:06.908Z,14.00
2022-11-20T08:31:35.602Z,16.52
2022-11-20T08:34:08.711Z,14.82
2022-11-20T08:36:39.201Z,14.85
2022-11-20T08:39:07.500Z,16.20
2022-11-20T08:41:37.728Z,13.93
2022-11-20T08:44:07.835Z,15.07
2022-11-20T08:46:38.134Z,14.85
2022-11-20T08:49:06.980Z,15.27
2022-11-20T08:51:35.641Z,16.17
2022-11-20T08:54:05.914Z,15.07
2022-11-20T08:56:34.370Z,14.85
2022-11-20T08:59:23.045Z,16.05
2022-11-20T09:01:51.105Z,13.82
2022-11-20T09:04:19.357Z,15.50
2022-11-20T09:06:51.888Z,15.05
2022-11-20T09:09:22.673Z,14.45
2022-11-20T09:11:52.217Z,14.88
2022-11-20T09:14:20.484Z,16.42
2022-11-20T09:16:48.722Z,15.45
2022-11-20T09:22:05.540Z,15.70
2022-11-20T09:24:35.341Z,16.77
2022-11-20T09:27:06.986Z,17.38
2022-11-20T09:29:35.234Z,14.77
2022-11-20T09:32:03.345Z,15.23
2022-11-20T09:34:31.711Z,14.18
2022-11-20T09:37:02.934Z,14.70
2022-11-20T09:39:39.993Z,14.05
2022-11-20T09:42:34.793Z,15.23
2022-11-20T09:45:21.353Z,16.23
2022-11-20T09:48:05.683Z,16.63
2022-11-20T09:50:38.160Z,15.57
2022-11-20T09:53:25.916Z,17.48
2022-11-20T09:55:57.152Z,15.75
2022-11-20T09:58:33.219Z,15.68
2022-11-20T10:01:08.307Z,16.40
2022-11-20T10:03:43.609Z,16.17
2022-11-20T10:06:18.086Z,16.42
2022-11-20T10:08:53.719Z,16.67
2022-11-20T10:11:33.407Z,17.48
2022-11-20T10:14:18.450Z,16.48
2022-11-20T10:16:58.344Z,16.02
2022-11-20T10:19:49.496Z,18.00
2022-11-20T10:22:30.019Z,16.88
2022-11-20T10:25:03.395Z,16.88
2022-11-20T10:27:58.874Z,17.15
2022-11-20T10:30:27.244Z,15.82
2022-11-20T10:33:00.845Z,17.63
2022-11-20T10:35:35.743Z,16.80
2022-11-20T10:38:07.712Z,15.98
2022-11-20T10:40:41.063Z,17.42
2022-11-20T10:43:16.405Z,16.63
2022-11-20T10:45:56.412Z,16.30
2022-11-20T10:48:26.581Z,16.85
2022-11-20T10:51:13.102Z,16.90
2022-11-20T10:53:53.606Z,18.25
2022-11-20T10:56:27.845Z,16.52
2022-11-20T10:59:06.953Z,17.63
2022-11-20T11:01:42.814Z,17.42
2022-11-20T11:04:29.026Z,16.20
2022-11-20T11:07:03.326Z,17.60
2022-11-20T11:09:36.694Z,16.80
2022-11-20T11:12:09.328Z,15.93
2022-11-20T11:14:53.347Z,15.80
2022-11-20T11:17:28.290Z,16.23
2022-11-20T11:20:01.374Z,16.60
2022-11-20T11:22:31.325Z,15.52
2022-11-20T11:24:59.788Z,17.10
2022-11-20T11:27:28.583Z,16.48
2022-11-20T11:30:16.518Z,15.93
2022-11-20T11:32:45.015Z,17.10
2022-11-20T11:35:25.727Z,16.15
2022-11-20T11:37:56.655Z,17.73
2022-11-20T11:40:28.113Z,15.15
2022-11-20T11:42:59.916Z,17.60
2022-11-20T11:45:29.403Z,17.27
2022-11-20T11:48:00.502Z,15.93
2022-11-20T11:50:30.065Z,17.77
2022-11-20T11:53:10.320Z,15.77
2022-11-20T11:55:44.559Z,18.50
2022-11-20T11:58:21.114Z,16.67
2022-11-20T12:00:59.333Z,17.48
2022-11-20T12:03:31.718Z,17.05
2022-11-20T12:06:04.028Z,17.88
2022-11-20T12:08:41.721Z,17.20
2022-11-20T12:11:21.243Z,16.75
2022-11-20T12:13:55.547Z,16.30
2022-11-20T12:16:25.679Z,15.30
2022-11-20T12:18:55.240Z,16.23
2022-11-20T12:21:33.565Z,14.80
2022-11-20T12:24:27.675Z,15.30
2022-11-20T12:27:11.904Z,16.50
2022-11-20T12:29:52.095Z,14.32
2022-11-20T12:32:42.848Z,16.23
2022-11-20T12:35:26.438Z,15.13
2022-11-20T12:38:10.423Z,13.93
2022-11-20T12:40:47.186Z,15.70
2022-11-20T12:43:38.958Z,15.98
2022-11-20T12:46:19.050Z,15.77
2022-11-20T12:49:24.915Z,15.07
2022-11-20T12:52:27.622Z,14.93
2022-11-20T12:55:25.898Z,14.32
2022-11-20T12:57:59.474Z,14.57
2022-11-20T13:00:27.836Z,14.52
2022-11-20T13:03:25.646Z,15.57
2022-11-20T13:06:01.827Z,16.48
2022-11-20T13:08:35.169Z,14.18
2022-11-20T13:11:09.959Z,13.13
2022-11-20T13:13:46.681Z,16.00
2022-11-20T13:16:21.377Z,14.77
2022-11-20T13:18:49.655Z,14.77
2022-11-20T13:21:39.093Z,14.52
2022-11-20T13:24:07.719Z,16.17
2022-11-20T13:26:35.939Z,13.98
2022-11-20T13:29:12.475Z,15.23
2022-11-20T13:31:45.346Z,15.55
2022-11-20T13:34:24.027Z,14.77
2022-11-20T13:36:56.561Z,14.02
2022-11-20T13:39:28.633Z,15.80
2022-11-20T13:41:58.870Z,13.75
2022-11-20T13:44:32.070Z,12.50
2022-11-20T13:47:00.223Z,14.13
2022-11-20T13:49:32.286Z,13.23
2022-11-20T13:52:21.669Z,14.00
2022-11-20T13:55:06.709Z,14.95
2022-11-20T13:57:50.885Z,14.27
2022-11-20T14:00:20.838Z,13.95
2022-11-20T14:03:01.832Z,13.60
2022-11-20T14:05:33.023Z,14.13
2022-11-20T14:08:06.206Z,14.18
2022-11-20T14:10:34.649Z,12.77
2022-11-20T14:13:13.661Z,13.80
2022-11-20T14:15:45.188Z,16.60
2022-11-20T14:18:15.938Z,13.88
2022-11-20T14:20:45.231Z,15.20
2022-11-20T14:23:14.955Z,14.90
2022-11-20T14:25:45.549Z,14.77
2022-11-20T14:28:22.442Z,14.38
2022-11-20T14:30:51.341Z,15.68
2022-11-20T14:33:20.929Z,15.70
2022-11-20T14:35:51.690Z,14.38
2022-11-20T14:38:24.453Z,15.90
2022-11-20T14:40:53.034Z,15.50
2022-11-20T14:43:24.703Z,17.05
2022-11-20T14:45:59.698Z,17.00
2022-11-20T14:48:32.927Z,15.05
2022-11-20T14:51:01.340Z,15.90
2022-11-20T14:53:31.467Z,15.63
2022-11-20T14:56:01.783Z,15.88
2022-11-20T14:58:32.836Z,15.05
2022-11-20T15:01:02.748Z,16.40
2022-11-20T15:03:35.196Z,15.20
2022-11-20T15:06:03.946Z,15.55
2022-11-20T15:08:33.796Z,15.23
2022-11-20T15:11:02.245Z,15.57
2022-11-20T15:13:34.872Z,16.30
2022-11-20T15:16:04.480Z,15.25
2022-11-20T15:18:35.155Z,17.58
2022-11-20T15:21:05.868Z,16.80
2022-11-20T15:23:36.691Z,15.52
2022-11-20T15:26:06.998Z,16.17
2022-11-20T15:28:38.203Z,16.45
2022-11-20T15:31:07.693Z,17.15
2022-11-20T15:33:36.138Z,15.82
2022-11-20T15:36:05.117Z,17.65
2022-11-20T15:38:34.999Z,18.60
2022-11-20T15:41:03.185Z,18.98
2022-11-20T15:43:31.401Z,17.95
2022-11-20T15:46:02.473Z,19.27
2022-11-20T15:48:33.948Z,20.58
2022-11-20T15:51:05.948Z,18.83
2022-11-20T15:53:35.697Z,17.15
2022-11-20T15:56:03.917Z,18.63
2022-11-20T15:58:32.488Z,18.50
2022-11-20T16:01:00.649Z,18.63
2022-11-20T16:03:28.973Z,18.83
2022-11-20T16:05:57.083Z,17.67
2022-11-20T16:08:25.358Z,18.95
2022-11-20T16:10:54.978Z,18.15
2022-11-20T16:13:40.638Z,19.23
2022-11-20T16:16:13.077Z,18.35
2022-11-20T16:18:41.219Z,18.38
2022-11-20T16:21:13.575Z,18.00
2022-11-20T16:23:42.057Z,17.88
2022-11-20T16:26:17.791Z,18.77
2022-11-20T16:28:46.089Z,20.83
2022-11-20T16:31:15.888Z,19.80
2022-11-20T16:33:44.123Z,18.50
2022-11-20T16:36:14.001Z,17.95
2022-11-20T16:38:42.259Z,18.25
2022-11-20T16:41:14.476Z,21.55
2022-11-20T16:43:52.129Z,23.13
2022-11-20T16:46:21.603Z,21.83
2022-11-20T16:48:55.571Z,22.13
2022-11-20T16:51:25.254Z,21.77
2022-11-20T16:53:55.841Z,23.25
2022-11-20T16:56:25.967Z,25.75
2022-11-20T16:58:56.598Z,24.13
2022-11-20T17:01:26.782Z,21.15
2022-11-20T17:03:59.051Z,20.30
2022-11-20T17:06:28.958Z,22.02
2022-11-20T17:08:58.140Z,22.85
2022-11-20T17:11:27.383Z,19.63
2022-11-20T17:14:00.716Z,20.75
2022-11-20T17:16:29.398Z,22.08
2022-11-20T17:19:02.482Z,20.38
2022-11-20T17:21:31.080Z,20.85
2022-11-20T17:24:02.399Z,22.05
2022-11-20T17:26:30.819Z,20.60
2022-11-20T17:29:01.477Z,20.23
2022-11-20T17:31:31.512Z,22.42
2022-11-20T17:34:00.475Z,20.98
2022-11-20T17:36:29.645Z,20.65
2022-11-20T17:38:57.965Z,19.88
2022-11-20T17:41:28.114Z,23.33
2022-11-20T17:43:57.801Z,23.10
2022-11-20T17:46:29.035Z,23.48
2022-11-20T17:48:57.800Z,23.40
2022-11-20T17:51:30.564Z,21.60
2022-11-20T17:54:00.722Z,21.25
2022-11-20T17:56:49.800Z,23.50
2022-11-20T17:59:18.618Z,21.58
2022-11-20T18:01:48.737Z,22.73
2022-11-20T18:04:17.821Z,23.38
2022-11-20T18:06:45.971Z,25.48
2022-11-20T18:09:14.427Z,24.30
2022-11-20T18:11:44.063Z,25.35
2022-11-20T18:14:29.328Z,24.35
2022-11-20T18:17:00.741Z,22.83
2022-11-20T18:19:32.901Z,22.02
2022-11-20T18:22:04.092Z,21.80
2022-11-20T18:24:32.685Z,22.98
2022-11-20T18:27:01.038Z,22.65
2022-11-20T18:29:31.269Z,22.45
2022-11-20T18:32:01.709Z,22.20
2022-11-20T18:34:30.130Z,21.10
2022-11-20T18:36:58.369Z,21.90
2022-11-20T18:39:26.650Z,21.67
2022-11-20T18:42:12.246Z,20.15
2022-11-20T18:44:52.790Z,21.42
2022-11-20T18:47:24.945Z,22.15
2022-11-20T18:49:54.713Z,21.52
2022-11-20T18:52:24.611Z,24.92
2022-11-20T18:54:52.882Z,24.30
2022-11-20T18:57:22.365Z,23.52
2022-11-20T18:59:50.471Z,21.42
2022-11-20T19:02:20.185Z,21.40
2022-11-20T19:04:50.333Z,20.88
2022-11-20T19:07:19.230Z,23.13
2022-11-20T19:09:50.854Z,22.48
2022-11-20T19:12:19.832Z,22.00
2022-11-20T19:14:48.157Z,18.88
2022-11-20T19:17:17.701Z,17.85
2022-11-20T19:19:46.735Z,16.38
2022-11-20T19:22:16.501Z,15.95
2022-11-20T19:24:44.679Z,12.82
2022-11-20T19:27:12.960Z,12.80
2022-11-20T19:29:41.337Z,11.13
2022-11-20T19:32:09.636Z,11.18
2022-11-20T19:34:38.016Z,10.88
2022-11-20T19:37:06.265Z,10.63
2022-11-20T19:39:37.270Z,11.50
2022-11-20T19:42:05.635Z,11.25
2022-11-20T19:44:34.151Z,9.00
2022-11-20T19:47:04.106Z,9.00
2022-11-20T19:49:32.460Z,11.02
2022-11-20T19:52:00.872Z,7.72
2022-11-20T19:54:29.252Z,7.40
2022-11-20T19:56:58.954Z,6.22
2022-11-20T19:59:27.212Z,7.35
2022-11-20T20:01:55.551Z,6.82
2022-11-20T20:04:23.808Z,7.25
2022-11-20T20:06:52.035Z,9.20
2022-11-20T20:09:20.614Z,11.45
2022-11-20T20:11:48.818Z,13.82
2022-11-20T20:14:20.151Z,12.82
2022-11-20T20:16:48.709Z,10.88
2022-11-20T20:19:17.761Z,9.90
2022-11-20T20:21:47.816Z,10.07
2022-11-20T20:24:16.140Z,11.65
2022-11-20T20:26:44.282Z,9.48
2022-11-20T20:29:12.559Z,7.70
2022-11-20T20:31:42.378Z,7.88
2022-11-20T20:34:10.654Z,6.38
2022-11-20T20:36:38.895Z,8.48
2022-11-20T20:39:07.110Z,9.65
2022-11-20T20:41:35.383Z,9.98
2022-11-20T20:44:20.860Z,12.25
2022-11-20T20:46:53.038Z,10.18
2022-11-20T20:49:21.820Z,9.90
2022-11-20T20:51:50.296Z,8.73
2022-11-20T20:54:18.700Z,8.18
2022-11-20T20:56:46.897Z,8.73
2022-11-20T20:59:15.223Z,7.97
2022-11-20T21:01:43.495Z,9.25
2022-11-20T21:04:13.240Z,7.63
2022-11-20T21:06:41.446Z,8.15
2022-11-20T21:09:09.727Z,7.75
2022-11-20T21:11:39.788Z,7.93
2022-11-20T21:14:07.953Z,7.47
2022-11-20T21:16:41.221Z,7.32
2022-11-20T21:19:09.648Z,7.28
2022-11-20T21:21:57.015Z,8.05
2022-11-20T21:24:25.529Z,7.72
2022-11-20T21:26:53.865Z,8.00
2022-11-20T21:29:22.504Z,6.95
2022-11-20T21:31:51.077Z,6.00
2022-11-20T21:34:19.562Z,6.68
2022-11-20T21:36:49.446Z,5.93
2022-11-20T21:39:18.510Z,4.25
2022-11-20T21:41:46.742Z,4.43
2022-11-20T21:44:30.648Z,4.70
2022-11-20T21:46:59.398Z,4.38
2022-11-20T21:49:27.599Z,4.50
2022-11-20T21:51:57.370Z,5.80
2022-11-20T21:54:25.952Z,6.40
2022-11-20T21:56:54.462Z,7.18
2022-11-20T21:59:23.019Z,8.90
2022-11-20T22:01:51.352Z,7.00
2022-11-20T22:04:20.106Z,8.65
2022-11-20T22:06:49.461Z,7.82
2022-11-20T22:09:19.244Z,7.60
2022-11-20T22:11:47.420Z,7.32
2022-11-20T22:14:20.453Z,8.18
2022-11-20T22:16:49.666Z,7.65
2022-11-20T22:19:19.084Z,7.10
2022-11-20T22:21:47.633Z,4.55
2022-11-20T22:24:18.933Z,6.10
2022-11-20T22:26:48.171Z,5.10
2022-11-20T22:29:17.787Z,5.28
2022-11-20T22:31:46.231Z,4.95
2022-11-20T22:34:15.279Z,6.43
2022-11-20T22:36:43.958Z,6.55
2022-11-20T22:39:12.189Z,6.90
2022-11-20T22:41:41.940Z,6.68
2022-11-20T22:44:10.155Z,6.80
2022-11-20T22:46:39.011Z,7.97
2022-11-20T22:49:09.621Z,6.63
2022-11-20T22:51:39.695Z,5.95
2022-11-20T22:54:09.863Z,5.35
2022-11-20T22:56:39.979Z,4.93
2022-11-20T22:59:09.981Z,5.20
2022-11-20T23:01:38.927Z,5.03
2022-11-20T23:04:09.120Z,4.63
2022-11-20T23:06:37.500Z,5.80
2022-11-20T23:09:07.259Z,5.15
2022-11-20T23:11:36.605Z,5.20
2022-11-20T23:14:06.598Z,5.63
2022-11-20T23:16:36.723Z,6.93
2022-11-20T23:19:07.323Z,8.82
2022-11-20T23:21:36.394Z,8.70
2022-11-20T23:24:05.530Z,5.40
2022-11-20T23:26:35.481Z,8.82
2022-11-20T23:29:04.036Z,9.70
2022-11-20T23:31:34.103Z,10.57
2022-11-20T23:34:04.615Z,10.02
2022-11-20T23:36:33.009Z,8.45
2022-11-20T23:39:01.512Z,9.45
2022-11-20T23:41:30.398Z,8.70
2022-11-20T23:43:58.668Z,8.70
2022-11-20T23:46:26.940Z,9.02
2022-11-20T23:48:55.103Z,9.25
2022-11-20T23:51:24.695Z,10.00
2022-11-20T23:53:52.822Z,9.77
2022-11-20T23:56:20.873Z,8.13
2022-11-20T23:58:49.153Z,9.20
